Time;durP1;ratioP1;P1;durP2;ratioP2;P2;SDS_P1;SDS_P2;PMS_P1;PMS_P2;Temp;Humidity;BMP_temperature;BMP_pressure;BME280_temperature;BME280_humidity;BME280_pressure;Samples;Min_cycle;Max_cycle;Signal;HPM_P1;HPM_P2
2022/08/06 00:00:16;;;;;;;3.97;1.20;;;;;;;;;;5123364;28;20034;-77
2022/08/06 00:02:42;;;;;;;6.88;1.25;;;;;;;;;;5122584;28;20429;-79
2022/08/06 00:05:07;;;;;;;4.07;1.20;;;;;;;;;;5119865;28;20031;-79
2022/08/06 00:07:35;;;;;;;3.90;1.20;;;;;;;;;;5119658;28;20335;-78
2022/08/06 00:10:00;;;;;;;4.82;1.30;;;;;;;;;;5122270;28;20058;-78
2022/08/06 00:12:25;;;;;;;5.70;1.30;;;;;;;;;;5127752;28;20039;-79
2022/08/06 00:14:51;;;;;;;5.75;1.50;;;;;;;;;;5123334;28;20023;-79
2022/08/06 00:17:18;;;;;;;4.40;1.50;;;;;;;;;;5119459;28;20023;-80
2022/08/06 00:19:44;;;;;;;7.20;1.15;;;;;;;;;;5116215;28;20313;-79
2022/08/06 00:22:09;;;;;;;7.03;1.35;;;;;;;;;;5122638;28;20020;-79
2022/08/06 00:24:34;;;;;;;3.25;1.27;;;;;;;;;;5115716;28;20008;-80
2022/08/06 00:27:00;;;;;;;5.05;1.20;;;;;;;;;;5122552;28;20020;-77
2022/08/06 00:29:25;;;;;;;5.43;1.23;;;;;;;;;;5122526;28;20012;-78
2022/08/06 00:31:50;;;;;;;7.57;1.55;;;;;;;;;;5122056;28;20084;-79
2022/08/06 00:34:16;;;;;;;2.97;1.30;;;;;;;;;;5117456;28;20324;-77
2022/08/06 00:36:41;;;;;;;2.72;1.20;;;;;;;;;;5122483;28;20045;-79
2022/08/06 00:39:07;;;;;;;2.90;1.20;;;;;;;;;;5121599;28;20189;-79
2022/08/06 00:41:34;;;;;;;3.65;1.30;;;;;;;;;;5122321;28;20016;-78
2022/08/06 00:44:00;;;;;;;4.20;1.30;;;;;;;;;;5122145;28;20095;-78
2022/08/06 00:46:26;;;;;;;3.10;1.30;;;;;;;;;;5116963;28;20039;-78
2022/08/06 00:48:52;;;;;;;4.60;1.20;;;;;;;;;;5122102;28;20084;-77
2022/08/06 00:51:18;;;;;;;3.42;1.20;;;;;;;;;;5122040;28;20062;-77
2022/08/06 00:53:44;;;;;;;6.43;1.30;;;;;;;;;;5121523;28;20520;-77
2022/08/06 00:56:09;;;;;;;5.63;1.40;;;;;;;;;;5121856;28;20023;-77
2022/08/06 00:58:35;;;;;;;3.53;1.20;;;;;;;;;;5116786;28;20026;-78
2022/08/06 01:01:00;;;;;;;2.72;1.20;;;;;;;;;;5121501;28;20027;-77
2022/08/06 01:03:26;;;;;;;3.72;1.30;;;;;;;;;;5121789;28;20022;-77
2022/08/06 01:05:51;;;;;;;4.28;1.30;;;;;;;;;;5114269;28;20028;-76
2022/08/06 01:08:17;;;;;;;4.03;1.45;;;;;;;;;;5121385;28;20062;-76
2022/08/06 01:10:42;;;;;;;2.13;1.30;;;;;;;;;;5121538;28;20105;-77
2022/08/06 01:13:08;;;;;;;4.82;1.30;;;;;;;;;;5119020;28;20040;-76
2022/08/06 01:15:34;;;;;;;4.18;1.48;;;;;;;;;;5117547;28;20019;-77
2022/08/06 01:18:13;;;;;;;5.45;1.73;;;;;;;;;;5121443;28;20339;-77
2022/08/06 01:20:44;;;;;;;6.28;1.40;;;;;;;;;;5121672;28;20012;-76
2022/08/06 01:23:59;;;;;;;5.75;1.20;;;;;;;;;;5121173;28;20019;-76
2022/08/06 01:27:10;;;;;;;6.57;1.58;;;;;;;;;;5121567;28;20031;-77
2022/08/06 01:29:39;;;;;;;4.28;1.45;;;;;;;;;;5114077;28;20042;-77
2022/08/06 01:32:17;;;;;;;4.10;1.40;;;;;;;;;;5118091;28;20028;-76
2022/08/06 01:34:54;;;;;;;3.95;1.48;;;;;;;;;;5119781;28;20027;-76
2022/08/06 01:37:26;;;;;;;6.13;1.40;;;;;;;;;;5108882;28;20019;-78
2022/08/06 01:39:56;;;;;;;6.65;1.42;;;;;;;;;;5121114;28;20041;-76
2022/08/06 01:42:24;;;;;;;4.10;1.52;;;;;;;;;;5120434;28;20037;-78
2022/08/06 01:44:54;;;;;;;4.93;1.60;;;;;;;;;;5113120;28;20208;-78
2022/08/06 01:47:21;;;;;;;4.47;1.60;;;;;;;;;;5115038;28;20113;-76
2022/08/06 01:49:52;;;;;;;4.18;1.50;;;;;;;;;;5115202;28;20091;-76
2022/08/06 01:52:21;;;;;;;7.65;1.45;;;;;;;;;;5102561;28;20019;-77
2022/08/06 01:54:50;;;;;;;4.88;1.60;;;;;;;;;;5120448;28;20059;-76
2022/08/06 01:57:18;;;;;;;4.88;1.30;;;;;;;;;;5121060;28;20027;-77
2022/08/06 01:59:47;;;;;;;3.88;1.50;;;;;;;;;;5121219;28;20065;-77
2022/08/06 02:02:18;;;;;;;6.88;1.50;;;;;;;;;;5120994;28;20036;-76
2022/08/06 02:04:45;;;;;;;6.20;1.50;;;;;;;;;;5119705;28;20219;-76
2022/08/06 02:07:12;;;;;;;5.15;1.50;;;;;;;;;;5116102;28;20219;-76
2022/08/06 02:09:41;;;;;;;8.82;1.50;;;;;;;;;;5120447;28;20020;-77
2022/08/06 02:12:11;;;;;;;3.90;1.30;;;;;;;;;;5114035;28;20027;-77
2022/08/06 02:14:42;;;;;;;2.22;1.30;;;;;;;;;;5121047;28;20039;-77
2022/08/06 02:17:10;;;;;;;4.00;1.50;;;;;;;;;;5123791;28;20019;-77
2022/08/06 02:19:37;;;;;;;3.63;1.30;;;;;;;;;;5125139;28;20020;-76
2022/08/06 02:22:03;;;;;;;5.50;1.50;;;;;;;;;;5124999;28;20099;-77
2022/08/06 02:24:30;;;;;;;4.68;1.40;;;;;;;;;;5124317;28;20091;-77
2022/08/06 02:26:58;;;;;;;6.25;1.40;;;;;;;;;;5114034;28;20114;-77
2022/08/06 02:29:25;;;;;;;3.25;1.50;;;;;;;;;;5117905;28;20042;-77
2022/08/06 02:31:51;;;;;;;4.93;1.30;;;;;;;;;;5112583;28;20107;-78
2022/08/06 02:34:19;;;;;;;4.93;1.40;;;;;;;;;;5110017;28;20054;-77
2022/08/06 02:36:56;;;;;;;3.60;1.40;;;;;;;;;;5106716;28;20082;-76
2022/08/06 02:39:26;;;;;;;6.25;1.60;;;;;;;;;;5108168;28;20061;-77
2022/08/06 02:42:09;;;;;;;4.13;1.50;;;;;;;;;;5103433;28;20089;-76
2022/08/06 02:44:44;;;;;;;4.03;1.30;;;;;;;;;;5103781;28;20232;-77
2022/08/06 02:47:19;;;;;;;4.78;1.40;;;;;;;;;;5104895;28;20031;-77
2022/08/06 02:49:47;;;;;;;3.85;1.50;;;;;;;;;;5106950;28;20031;-76
2022/08/06 02:52:39;;;;;;;2.20;1.30;;;;;;;;;;5103271;28;20020;-77
2022/08/06 02:55:16;;;;;;;5.75;1.73;;;;;;;;;;5106416;28;20040;-77
2022/08/06 02:57:55;;;;;;;4.38;1.40;;;;;;;;;;5108239;28;20048;-77
2022/08/06 03:00:22;;;;;;;5.43;1.55;;;;;;;;;;5103644;28;20016;-76
2022/08/06 03:02:52;;;;;;;2.60;1.33;;;;;;;;;;5103724;28;20221;-76
2022/08/06 03:05:20;;;;;;;6.13;1.60;;;;;;;;;;5112179;28;20069;-77
2022/08/06 03:07:48;;;;;;;4.57;1.40;;;;;;;;;;5107448;28;20305;-76
2022/08/06 03:10:16;;;;;;;4.38;1.30;;;;;;;;;;5087564;28;20024;-76
2022/08/06 03:12:42;;;;;;;3.97;2.03;;;;;;;;;;5109798;28;20036;-76
2022/08/06 03:15:10;;;;;;;3.78;1.30;;;;;;;;;;5108254;28;20020;-76
2022/08/06 03:17:37;;;;;;;3.92;1.40;;;;;;;;;;5104154;28;20201;-76
2022/08/06 03:20:04;;;;;;;3.42;1.55;;;;;;;;;;5103213;28;20039;-76
2022/08/06 03:22:30;;;;;;;4.97;1.42;;;;;;;;;;5102867;28;20027;-77
2022/08/06 03:24:57;;;;;;;3.67;1.30;;;;;;;;;;5107029;28;20132;-77
2022/08/06 03:27:24;;;;;;;3.80;1.70;;;;;;;;;;5102920;28;20024;-78
2022/08/06 03:29:50;;;;;;;4.03;1.45;;;;;;;;;;5103823;28;20020;-77
2022/08/06 03:32:16;;;;;;;4.05;1.33;;;;;;;;;;5103280;28;20032;-77
2022/08/06 03:34:43;;;;;;;2.80;1.35;;;;;;;;;;5103000;28;20036;-77
2022/08/06 03:37:09;;;;;;;8.60;1.60;;;;;;;;;;5102562;28;20308;-76
2022/08/06 03:39:38;;;;;;;5.70;1.30;;;;;;;;;;5106693;28;20088;-77
2022/08/06 03:42:05;;;;;;;3.47;1.30;;;;;;;;;;5106460;28;20023;-76
2022/08/06 03:44:30;;;;;;;5.15;1.42;;;;;;;;;;5106665;28;20022;-77
2022/08/06 03:47:04;;;;;;;4.07;1.30;;;;;;;;;;5102839;28;20051;-77
2022/08/06 03:49:50;;;;;;;6.13;1.20;;;;;;;;;;5102830;28;20016;-76
2022/08/06 03:52:20;;;;;;;5.10;1.30;;;;;;;;;;5104814;28;20345;-77
2022/08/06 03:54:49;;;;;;;2.80;1.30;;;;;;;;;;5117674;28;20223;-77
2022/08/06 03:57:19;;;;;;;3.80;1.38;;;;;;;;;;5114157;28;20019;-77
2022/08/06 03:59:48;;;;;;;7.55;1.42;;;;;;;;;;5114005;28;20030;-77
2022/08/06 04:02:15;;;;;;;6.25;1.58;;;;;;;;;;5121885;28;20027;-76
2022/08/06 04:04:42;;;;;;;6.95;1.65;;;;;;;;;;5095483;28;20023;-76
2022/08/06 04:07:08;;;;;;;5.72;1.48;;;;;;;;;;5117315;28;20015;-76
2022/08/06 04:09:34;;;;;;;6.80;1.77;;;;;;;;;;5122535;28;20038;-77
2022/08/06 04:12:02;;;;;;;3.53;1.50;;;;;;;;;;5121775;28;20335;-77
2022/08/06 04:14:28;;;;;;;4.88;1.30;;;;;;;;;;5115576;28;20032;-76
2022/08/06 04:16:54;;;;;;;4.18;1.40;;;;;;;;;;5122346;28;20031;-76
2022/08/06 04:19:20;;;;;;;4.45;1.50;;;;;;;;;;5119394;28;20024;-76
2022/08/06 04:21:46;;;;;;;3.83;1.33;;;;;;;;;;5120059;28;20020;-76
2022/08/06 04:24:13;;;;;;;3.92;1.40;;;;;;;;;;5122615;28;20499;-76
2022/08/06 04:26:42;;;;;;;5.35;1.50;;;;;;;;;;5103656;28;20102;-77
2022/08/06 04:29:15;;;;;;;4.82;1.65;;;;;;;;;;5115740;28;20219;-76
2022/08/06 04:31:44;;;;;;;6.00;1.30;;;;;;;;;;5117362;28;20448;-76
2022/08/06 04:34:10;;;;;;;6.95;1.50;;;;;;;;;;5122691;28;20023;-76
2022/08/06 04:36:35;;;;;;;4.57;1.40;;;;;;;;;;5121479;28;20042;-76
2022/08/06 04:39:01;;;;;;;3.63;1.27;;;;;;;;;;5121886;28;20024;-76
2022/08/06 04:41:26;;;;;;;8.27;1.60;;;;;;;;;;5115868;28;20319;-76
2022/08/06 04:43:52;;;;;;;5.25;1.40;;;;;;;;;;5121814;28;20566;-77
2022/08/06 04:46:19;;;;;;;4.30;1.35;;;;;;;;;;5103144;28;20099;-76
2022/08/06 04:48:57;;;;;;;4.90;1.50;;;;;;;;;;5117879;28;20019;-76
2022/08/06 04:51:24;;;;;;;5.00;1.50;;;;;;;;;;5082459;28;20027;-76
2022/08/06 04:53:49;;;;;;;2.85;1.38;;;;;;;;;;5117548;28;20051;-77
2022/08/06 04:56:15;;;;;;;5.15;1.50;;;;;;;;;;5122193;28;20023;-77
2022/08/06 04:58:40;;;;;;;3.80;1.42;;;;;;;;;;5121559;28;20084;-76
2022/08/06 05:01:06;;;;;;;5.53;1.40;;;;;;;;;;5118253;28;20212;-77
2022/08/06 05:03:31;;;;;;;3.08;1.40;;;;;;;;;;5115378;28;20031;-76
2022/08/06 05:06:06;;;;;;;3.20;1.30;;;;;;;;;;5114031;28;20406;-77
2022/08/06 05:08:35;;;;;;;3.70;1.60;;;;;;;;;;5116614;28;20023;-77
2022/08/06 05:11:27;;;;;;;3.20;1.30;;;;;;;;;;5115805;28;20031;-77
2022/08/06 05:13:57;;;;;;;3.90;1.50;;;;;;;;;;5111675;28;20435;-77
2022/08/06 05:16:25;;;;;;;3.33;1.30;;;;;;;;;;5121115;28;20073;-76
2022/08/06 05:18:56;;;;;;;4.15;1.30;;;;;;;;;;5115180;28;20041;-77
2022/08/06 05:21:28;;;;;;;4.35;1.42;;;;;;;;;;5121186;28;20046;-77
2022/08/06 05:23:54;;;;;;;4.13;1.60;;;;;;;;;;5113159;28;20054;-76
2022/08/06 05:26:21;;;;;;;4.43;1.58;;;;;;;;;;5122195;28;20027;-77
2022/08/06 05:28:46;;;;;;;4.18;1.42;;;;;;;;;;5121109;28;20380;-76
2022/08/06 05:31:12;;;;;;;2.88;1.38;;;;;;;;;;5121313;28;20031;-77
2022/08/06 05:33:39;;;;;;;4.50;1.40;;;;;;;;;;5114667;28;20204;-76
2022/08/06 05:36:11;;;;;;;2.92;1.30;;;;;;;;;;5114734;28;20108;-77
2022/08/06 05:38:40;;;;;;;6.00;1.50;;;;;;;;;;5121140;28;20222;-76
2022/08/06 05:41:07;;;;;;;5.03;1.30;;;;;;;;;;5121736;28;20047;-76
2022/08/06 05:43:33;;;;;;;4.95;1.40;;;;;;;;;;5119662;28;20420;-77
2022/08/06 05:46:13;;;;;;;5.40;1.40;;;;;;;;;;5121436;28;20382;-76
2022/08/06 05:48:51;;;;;;;3.08;1.60;;;;;;;;;;5110996;28;20099;-76
2022/08/06 05:51:58;;;;;;;6.70;1.60;;;;;;;;;;5093028;28;20035;-76
2022/08/06 05:54:36;;;;;;;4.25;1.40;;;;;;;;;;5081918;28;20348;-77
2022/08/06 05:57:12;;;;;;;3.80;1.30;;;;;;;;;;5100411;28;20039;-76
2022/08/06 05:59:43;;;;;;;4.60;1.40;;;;;;;;;;5084884;28;20092;-76
2022/08/06 06:02:11;;;;;;;5.55;1.52;;;;;;;;;;5097650;28;20056;-75
2022/08/06 06:04:37;;;;;;;5.57;1.40;;;;;;;;;;5088071;28;20077;-76
2022/08/06 06:07:09;;;;;;;4.82;1.40;;;;;;;;;;5094613;28;20426;-78
2022/08/06 06:09:36;;;;;;;4.53;1.58;;;;;;;;;;5089367;28;20036;-75
2022/08/06 06:12:02;;;;;;;4.13;1.42;;;;;;;;;;5100587;28;20042;-75
2022/08/06 06:14:38;;;;;;;3.83;1.40;;;;;;;;;;5100684;28;20027;-75
2022/08/06 06:17:38;;;;;;;3.22;1.40;;;;;;;;;;5089598;28;20023;-75
2022/08/06 06:20:13;;;;;;;4.78;1.42;;;;;;;;;;5096953;28;20032;-78
2022/08/06 06:22:56;;;;;;;4.47;1.60;;;;;;;;;;5097277;28;20032;-77
2022/08/06 06:25:33;;;;;;;8.00;1.50;;;;;;;;;;5099447;28;20074;-77
2022/08/06 06:28:48;;;;;;;3.13;1.20;;;;;;;;;;5097374;28;20039;-77
2022/08/06 06:31:24;;;;;;;4.20;1.23;;;;;;;;;;5081668;28;20237;-77
2022/08/06 06:34:05;;;;;;;3.78;1.38;;;;;;;;;;5099014;28;20024;-77
2022/08/06 06:36:51;;;;;;;3.78;1.23;;;;;;;;;;5100198;28;20024;-75
2022/08/06 06:39:22;;;;;;;5.20;1.50;;;;;;;;;;5089652;28;20286;-75
2022/08/06 06:42:05;;;;;;;4.60;1.50;;;;;;;;;;5095463;28;20275;-74
2022/08/06 06:44:35;;;;;;;5.70;1.30;;;;;;;;;;5092485;28;20126;-75
2022/08/06 06:47:06;;;;;;;3.97;1.30;;;;;;;;;;5100110;28;20046;-75
2022/08/06 06:49:35;;;;;;;5.47;1.30;;;;;;;;;;5100117;28;20020;-75
2022/08/06 06:52:10;;;;;;;4.55;1.42;;;;;;;;;;5100254;28;20212;-75
2022/08/06 06:54:41;;;;;;;5.45;1.45;;;;;;;;;;5106220;28;20331;-75
2022/08/06 06:57:11;;;;;;;4.22;1.45;;;;;;;;;;5114905;28;20046;-75
2022/08/06 06:59:41;;;;;;;5.40;1.60;;;;;;;;;;5114369;28;20076;-75
2022/08/06 07:02:16;;;;;;;4.18;1.30;;;;;;;;;;5113814;28;20024;-75
2022/08/06 07:04:43;;;;;;;3.22;1.20;;;;;;;;;;5111794;28;20338;-75
2022/08/06 07:07:09;;;;;;;7.68;1.38;;;;;;;;;;5116366;28;20032;-75
2022/08/06 07:09:35;;;;;;;3.80;1.30;;;;;;;;;;5112705;28;20279;-75
2022/08/06 07:12:02;;;;;;;4.68;1.50;;;;;;;;;;5117144;28;20131;-75
2022/08/06 07:14:29;;;;;;;4.65;1.33;;;;;;;;;;5123825;28;20024;-76
2022/08/06 07:16:58;;;;;;;4.53;1.30;;;;;;;;;;5116044;28;20078;-75
2022/08/06 07:19:24;;;;;;;5.22;1.20;;;;;;;;;;5119518;28;20024;-75
2022/08/06 07:21:50;;;;;;;6.03;1.45;;;;;;;;;;5121821;28;20035;-75
2022/08/06 07:24:17;;;;;;;4.50;1.25;;;;;;;;;;5114006;28;20027;-75
2022/08/06 07:26:44;;;;;;;3.92;1.15;;;;;;;;;;5122374;28;20035;-77
2022/08/06 07:29:11;;;;;;;3.83;1.30;;;;;;;;;;5101033;28;20019;-75
2022/08/06 07:31:40;;;;;;;4.22;1.25;;;;;;;;;;5123748;28;20319;-75
2022/08/06 07:34:05;;;;;;;2.47;1.10;;;;;;;;;;5104954;28;20019;-76
2022/08/06 07:36:35;;;;;;;5.05;1.42;;;;;;;;;;5113174;28;20026;-75
2022/08/06 07:39:03;;;;;;;3.70;1.10;;;;;;;;;;5122921;28;20024;-76
2022/08/06 07:41:30;;;;;;;4.00;1.30;;;;;;;;;;5104930;28;20055;-75
2022/08/06 07:43:58;;;;;;;4.60;1.42;;;;;;;;;;5123720;28;20023;-75
2022/08/06 07:46:34;;;;;;;4.85;1.55;;;;;;;;;;5115107;28;20367;-75
2022/08/06 07:49:04;;;;;;;3.58;1.10;;;;;;;;;;5120859;28;20019;-76
2022/08/06 07:51:34;;;;;;;2.65;1.13;;;;;;;;;;5095739;28;20372;-75
2022/08/06 07:54:01;;;;;;;2.97;1.10;;;;;;;;;;5122429;28;20172;-75
2022/08/06 07:56:27;;;;;;;2.15;1.10;;;;;;;;;;5117440;28;20089;-74
2022/08/06 07:58:54;;;;;;;3.45;1.10;;;;;;;;;;5115342;28;20032;-74
2022/08/06 08:01:20;;;;;;;3.58;1.10;;;;;;;;;;5119665;28;20027;-76
2022/08/06 08:06:31;;;;;;;4.70;1.20;;;;;;;;;;5109196;28;20026;-76
2022/08/06 08:09:07;;;;;;;4.22;1.10;;;;;;;;;;5123254;28;20023;-76
2022/08/06 08:11:40;;;;;;;4.05;1.20;;;;;;;;;;5118631;28;20083;-75
2022/08/06 08:14:07;;;;;;;2.75;1.13;;;;;;;;;;5112225;28;20095;-75
2022/08/06 08:16:33;;;;;;;3.10;1.25;;;;;;;;;;5120531;28;20019;-77
2022/08/06 08:18:58;;;;;;;3.30;1.40;;;;;;;;;;5122662;28;20026;-75
2022/08/06 08:21:25;;;;;;;4.75;1.30;;;;;;;;;;5115910;28;20027;-76
2022/08/06 08:23:51;;;;;;;7.60;1.20;;;;;;;;;;5122807;28;20023;-76
2022/08/06 08:26:17;;;;;;;4.00;1.10;;;;;;;;;;5122309;28;20092;-75
2022/08/06 08:28:42;;;;;;;3.47;1.15;;;;;;;;;;5122544;28;20312;-75
2022/08/06 08:31:08;;;;;;;2.38;1.00;;;;;;;;;;5120213;28;20024;-76
2022/08/06 08:33:34;;;;;;;2.97;1.00;;;;;;;;;;5104926;28;20043;-75
2022/08/06 08:36:00;;;;;;;4.57;1.30;;;;;;;;;;5118047;28;20019;-76
2022/08/06 08:38:30;;;;;;;2.95;1.15;;;;;;;;;;5122366;28;20016;-75
2022/08/06 08:40:58;;;;;;;3.28;1.23;;;;;;;;;;5115366;28;20068;-75
2022/08/06 08:43:37;;;;;;;3.83;1.23;;;;;;;;;;5102106;28;20103;-76
2022/08/06 08:46:07;;;;;;;1.85;1.13;;;;;;;;;;5112867;28;20030;-78
2022/08/06 08:48:38;;;;;;;3.10;1.10;;;;;;;;;;5121163;28;20022;-78
2022/08/06 08:51:05;;;;;;;2.50;1.10;;;;;;;;;;5121171;28;20027;-78
2022/08/06 08:54:02;;;;;;;2.78;1.20;;;;;;;;;;5121833;28;20039;-77
2022/08/06 08:56:28;;;;;;;3.63;1.10;;;;;;;;;;5105990;28;20031;-77
2022/08/06 08:58:54;;;;;;;4.43;1.10;;;;;;;;;;5119718;28;20036;-78
2022/08/06 09:01:20;;;;;;;4.13;1.20;;;;;;;;;;5121005;28;20031;-79
2022/08/06 09:03:45;;;;;;;3.00;0.90;;;;;;;;;;5114733;28;20341;-79
2022/08/06 09:06:11;;;;;;;1.83;1.00;;;;;;;;;;5113609;28;20020;-80
2022/08/06 09:08:37;;;;;;;4.93;1.20;;;;;;;;;;5121938;28;20007;-80
2022/08/06 09:11:04;;;;;;;1.98;1.00;;;;;;;;;;5109980;28;20032;-79
2022/08/06 09:13:30;;;;;;;2.58;1.10;;;;;;;;;;5121422;28;20035;-79
2022/08/06 09:15:56;;;;;;;4.60;1.10;;;;;;;;;;5115427;28;20031;-81
2022/08/06 09:18:25;;;;;;;2.35;1.10;;;;;;;;;;5121181;28;20019;-81
2022/08/06 09:20:50;;;;;;;2.53;0.90;;;;;;;;;;5121800;28;20024;-81
2022/08/06 09:23:17;;;;;;;4.20;1.20;;;;;;;;;;5113368;28;20282;-82
2022/08/06 09:25:45;;;;;;;2.88;1.10;;;;;;;;;;5119678;28;20073;-82
2022/08/06 09:28:25;;;;;;;3.20;1.10;;;;;;;;;;5121495;28;20019;-81
2022/08/06 09:31:18;;;;;;;2.22;1.10;;;;;;;;;;5121537;28;20091;-81
2022/08/06 09:34:04;;;;;;;3.30;1.00;;;;;;;;;;5112990;28;20047;-79
2022/08/06 09:36:45;;;;;;;2.08;1.20;;;;;;;;;;5121382;28;20023;-81
2022/08/06 09:39:10;;;;;;;4.13;1.10;;;;;;;;;;5109599;28;20030;-80
2022/08/06 09:41:48;;;;;;;5.30;1.10;;;;;;;;;;5121061;28;20019;-82
2022/08/06 09:44:13;;;;;;;2.17;1.00;;;;;;;;;;5117534;28;20345;-79
2022/08/06 09:46:45;;;;;;;3.20;1.00;;;;;;;;;;5115980;28;20150;-80
2022/08/06 09:49:12;;;;;;;3.72;1.08;;;;;;;;;;5112134;28;20053;-79
2022/08/06 09:51:38;;;;;;;3.13;1.00;;;;;;;;;;5121039;28;20069;-81
2022/08/06 09:54:07;;;;;;;1.80;0.90;;;;;;;;;;5119120;28;20039;-80
2022/08/06 09:56:32;;;;;;;2.42;1.00;;;;;;;;;;5118141;28;20316;-83
2022/08/06 09:59:00;;;;;;;3.67;0.90;;;;;;;;;;5097901;28;20060;-81
2022/08/06 10:01:26;;;;;;;2.90;0.90;;;;;;;;;;5107593;28;20032;-80
2022/08/06 10:03:54;;;;;;;3.97;1.00;;;;;;;;;;5104275;28;20028;-79
2022/08/06 10:06:20;;;;;;;4.28;1.00;;;;;;;;;;5106257;28;20138;-81
2022/08/06 10:09:03;;;;;;;1.45;0.93;;;;;;;;;;5100493;28;20020;-78
2022/08/06 10:11:40;;;;;;;2.13;1.10;;;;;;;;;;5100347;28;20105;-80
2022/08/06 10:14:21;;;;;;;1.75;0.98;;;;;;;;;;5103214;28;20150;-78
2022/08/06 10:17:09;;;;;;;1.98;1.00;;;;;;;;;;5103306;28;20023;-80
2022/08/06 10:19:36;;;;;;;3.30;1.00;;;;;;;;;;5100823;28;20038;-81
2022/08/06 10:22:09;;;;;;;2.33;1.00;;;;;;;;;;5100799;28;20039;-79
2022/08/06 10:24:40;;;;;;;2.83;1.00;;;;;;;;;;5100316;28;20036;-80
2022/08/06 10:27:07;;;;;;;1.48;0.90;;;;;;;;;;5082040;28;20216;-81
2022/08/06 10:29:35;;;;;;;1.40;0.90;;;;;;;;;;5099325;28;20024;-80
2022/08/06 10:32:03;;;;;;;4.22;1.20;;;;;;;;;;5099896;28;20051;-78
2022/08/06 10:34:33;;;;;;;4.28;2.30;;;;;;;;;;5100225;28;20020;-78
2022/08/06 10:37:05;;;;;;;5.57;2.00;;;;;;;;;;5101278;28;20049;-79
2022/08/06 10:39:34;;;;;;;2.80;1.10;;;;;;;;;;5105364;28;20320;-79
2022/08/06 10:42:01;;;;;;;4.95;1.10;;;;;;;;;;5112866;28;20039;-79
2022/08/06 10:44:27;;;;;;;2.60;1.10;;;;;;;;;;5120046;28;20096;-78
2022/08/06 10:46:53;;;;;;;4.43;1.13;;;;;;;;;;5112376;28;20022;-77
2022/08/06 10:49:23;;;;;;;2.58;1.20;;;;;;;;;;5108315;28;20023;-84
2022/08/06 10:51:53;;;;;;;2.08;1.00;;;;;;;;;;5111119;28;20366;-80
2022/08/06 10:54:19;;;;;;;2.30;1.15;;;;;;;;;;5105356;28;20205;-79
2022/08/06 10:56:48;;;;;;;3.15;1.10;;;;;;;;;;5105184;28;20016;-76
2022/08/06 10:59:14;;;;;;;2.95;1.20;;;;;;;;;;5112101;28;20285;-76
2022/08/06 11:01:42;;;;;;;2.25;1.10;;;;;;;;;;5111815;28;20030;-76
2022/08/06 11:04:14;;;;;;;2.30;1.00;;;;;;;;;;5121853;28;20086;-76
2022/08/06 11:06:59;;;;;;;2.22;1.02;;;;;;;;;;5117185;28;20307;-78
2022/08/06 11:09:57;;;;;;;3.03;1.00;;;;;;;;;;5115089;28;20134;-76
2022/08/06 11:12:41;;;;;;;2.00;1.00;;;;;;;;;;5117051;28;20099;-77
2022/08/06 11:15:07;;;;;;;3.28;1.00;;;;;;;;;;5122843;28;20262;-75
2022/08/06 11:17:53;;;;;;;1.75;0.98;;;;;;;;;;5118228;28;20341;-79
2022/08/06 11:20:39;;;;;;;2.72;1.00;;;;;;;;;;5116185;28;20254;-76
2022/08/06 11:23:22;;;;;;;1.60;1.13;;;;;;;;;;5116392;28;20031;-77
2022/08/06 11:25:53;;;;;;;2.85;1.30;;;;;;;;;;5117491;28;20033;-77
2022/08/06 11:28:28;;;;;;;2.90;1.75;;;;;;;;;;5121828;28;20020;-79
2022/08/06 11:30:56;;;;;;;3.17;2.15;;;;;;;;;;5119361;28;20039;-76
2022/08/06 11:33:34;;;;;;;8.95;4.25;;;;;;;;;;5123730;28;20058;-77
2022/08/06 11:36:02;;;;;;;5.40;3.05;;;;;;;;;;5110330;28;20061;-77
2022/08/06 11:38:49;;;;;;;3.58;1.20;;;;;;;;;;5123037;28;20375;-78
2022/08/06 11:41:17;;;;;;;1.75;1.10;;;;;;;;;;5117093;28;20476;-78
2022/08/06 11:43:52;;;;;;;3.40;1.23;;;;;;;;;;5117032;28;20027;-80
2022/08/06 11:46:17;;;;;;;2.78;1.30;;;;;;;;;;5102741;28;20032;-77
2022/08/06 11:48:58;;;;;;;3.53;1.30;;;;;;;;;;5083655;28;20125;-78
2022/08/06 11:51:40;;;;;;;1.63;1.10;;;;;;;;;;5102959;28;20036;-78
2022/08/06 11:54:14;;;;;;;2.67;1.20;;;;;;;;;;5104727;28;20333;-78
2022/08/06 11:56:58;;;;;;;2.53;1.40;;;;;;;;;;5102117;28;20055;-77
2022/08/06 11:59:24;;;;;;;2.50;1.60;;;;;;;;;;5102196;28;20091;-78
2022/08/06 12:01:50;;;;;;;2.83;1.50;;;;;;;;;;5112954;28;20036;-78
2022/08/06 12:04:34;;;;;;;2.38;1.40;;;;;;;;;;5118482;28;20027;-78
2022/08/06 12:07:23;;;;;;;2.95;1.40;;;;;;;;;;5112438;28;20027;-78
2022/08/06 12:10:15;;;;;;;3.17;1.40;;;;;;;;;;5122478;28;20031;-79
2022/08/06 12:12:46;;;;;;;3.00;1.50;;;;;;;;;;5118037;28;20362;-79
2022/08/06 12:15:11;;;;;;;3.78;1.88;;;;;;;;;;5116169;28;20030;-79
2022/08/06 12:17:38;;;;;;;2.75;1.60;;;;;;;;;;5117424;28;20051;-78
2022/08/06 12:20:04;;;;;;;4.28;1.70;;;;;;;;;;5122550;28;20027;-79
2022/08/06 12:22:34;;;;;;;2.63;1.70;;;;;;;;;;5117496;28;20042;-78
2022/08/06 12:25:03;;;;;;;2.95;1.40;;;;;;;;;;5121294;28;20028;-79
2022/08/06 12:27:36;;;;;;;3.95;1.60;;;;;;;;;;5122758;28;20094;-77
2022/08/06 12:30:03;;;;;;;3.75;2.20;;;;;;;;;;5095850;28;20028;-81
2022/08/06 12:32:33;;;;;;;4.78;1.73;;;;;;;;;;5121771;28;20243;-79
2022/08/06 12:35:03;;;;;;;2.58;1.60;;;;;;;;;;5122558;28;20046;-80
2022/08/06 12:37:41;;;;;;;4.18;1.92;;;;;;;;;;5121978;28;20338;-80
2022/08/06 12:40:27;;;;;;;4.03;2.40;;;;;;;;;;5122670;28;20050;-81
2022/08/06 12:43:07;;;;;;;2.88;2.00;;;;;;;;;;5109291;28;20108;-80
2022/08/06 12:45:32;;;;;;;4.03;1.60;;;;;;;;;;5092779;28;20035;-79
2022/08/06 12:47:59;;;;;;;3.30;1.70;;;;;;;;;;5090882;28;20024;-81
2022/08/06 12:50:26;;;;;;;3.08;1.70;;;;;;;;;;5122075;28;20019;-82
2022/08/06 12:53:09;;;;;;;4.35;2.00;;;;;;;;;;5119114;28;20027;-80
2022/08/06 12:55:43;;;;;;;3.47;1.70;;;;;;;;;;5115300;28;20024;-79
2022/08/06 12:58:09;;;;;;;3.03;1.83;;;;;;;;;;5121703;28;20582;-78
2022/08/06 13:00:36;;;;;;;3.63;1.90;;;;;;;;;;5095910;28;20039;-79
2022/08/06 13:03:03;;;;;;;3.72;1.80;;;;;;;;;;5122201;28;20090;-81
2022/08/06 13:05:30;;;;;;;5.05;1.90;;;;;;;;;;5115378;28;20266;-79
2022/08/06 13:08:00;;;;;;;4.05;1.90;;;;;;;;;;5117617;28;20305;-80
2022/08/06 13:10:25;;;;;;;4.38;1.70;;;;;;;;;;5118113;28;20019;-80
2022/08/06 13:12:59;;;;;;;5.43;2.47;;;;;;;;;;5115339;28;20039;-77
2022/08/06 13:15:26;;;;;;;5.93;1.80;;;;;;;;;;5115424;28;20028;-76
2022/08/06 13:18:15;;;;;;;3.00;1.80;;;;;;;;;;5121550;28;20328;-82
2022/08/06 13:20:43;;;;;;;4.35;1.90;;;;;;;;;;5115368;28;20023;-79
2022/08/06 13:23:10;;;;;;;3.45;1.90;;;;;;;;;;5122821;28;20038;-83
2022/08/06 13:25:47;;;;;;;3.00;1.75;;;;;;;;;;5121764;28;20021;-81
2022/08/06 13:28:15;;;;;;;4.65;2.00;;;;;;;;;;5097829;28;20848;-80
2022/08/06 13:30:42;;;;;;;3.75;1.77;;;;;;;;;;5121863;28;20032;-84
2022/08/06 13:33:25;;;;;;;3.42;1.90;;;;;;;;;;5122385;28;20059;-79
2022/08/06 13:36:04;;;;;;;4.22;1.77;;;;;;;;;;5113899;28;20019;-81
2022/08/06 13:38:35;;;;;;;3.15;1.73;;;;;;;;;;5110851;28;20019;-80
2022/08/06 13:41:02;;;;;;;2.90;1.60;;;;;;;;;;5122218;28;20098;-80
2022/08/06 13:43:44;;;;;;;2.85;1.60;;;;;;;;;;5111163;28;20045;-78
2022/08/06 13:46:17;;;;;;;2.80;1.60;;;;;;;;;;5120096;28;20046;-81
2022/08/06 13:48:46;;;;;;;4.20;1.67;;;;;;;;;;5118667;28;20024;-78
2022/08/06 13:51:28;;;;;;;5.53;1.80;;;;;;;;;;5118982;28;20034;-78
2022/08/06 13:53:59;;;;;;;4.07;1.70;;;;;;;;;;5104097;28;20058;-80
2022/08/06 13:56:26;;;;;;;3.60;1.50;;;;;;;;;;5101298;28;20228;-77
2022/08/06 13:58:54;;;;;;;7.13;1.60;;;;;;;;;;5121508;28;20050;-78
2022/08/06 14:01:22;;;;;;;3.00;1.60;;;;;;;;;;5121246;28;20458;-79
2022/08/06 14:03:48;;;;;;;2.97;1.40;;;;;;;;;;5121975;28;20031;-77
2022/08/06 14:06:13;;;;;;;5.25;1.50;;;;;;;;;;5111649;28;20099;-77
2022/08/06 14:08:38;;;;;;;3.22;1.38;;;;;;;;;;5103472;28;20039;-78
2022/08/06 14:11:04;;;;;;;2.65;1.60;;;;;;;;;;5103965;28;20024;-77
2022/08/06 14:13:31;;;;;;;3.38;1.45;;;;;;;;;;5106900;28;20028;-79
2022/08/06 14:16:00;;;;;;;2.60;1.60;;;;;;;;;;5108459;28;20020;-77
2022/08/06 14:18:26;;;;;;;2.85;1.50;;;;;;;;;;5107168;28;20307;-79
2022/08/06 14:20:51;;;;;;;3.33;1.70;;;;;;;;;;5106826;28;20059;-82
2022/08/06 14:23:17;;;;;;;6.07;1.40;;;;;;;;;;5107517;28;20031;-80
2022/08/06 14:25:42;;;;;;;5.13;1.50;;;;;;;;;;5106912;28;20311;-78
2022/08/06 14:28:11;;;;;;;5.45;1.42;;;;;;;;;;5108850;28;20022;-79
2022/08/06 14:30:36;;;;;;;2.75;1.50;;;;;;;;;;5107303;28;20023;-78
2022/08/06 14:33:03;;;;;;;2.40;1.30;;;;;;;;;;5107389;28;20016;-78
2022/08/06 14:35:29;;;;;;;2.75;1.30;;;;;;;;;;5106830;28;20034;-79
2022/08/06 14:37:54;;;;;;;2.45;1.30;;;;;;;;;;5107630;28;20032;-78
2022/08/06 14:45:50;;;;;;;2.67;1.50;;;;;;;;;;5111403;28;20022;-77
2022/08/06 14:48:15;;;;;;;3.42;1.35;;;;;;;;;;5107266;28;20012;-78
2022/08/06 14:50:41;;;;;;;4.20;2.00;;;;;;;;;;5091308;28;20350;-78
2022/08/06 14:53:06;;;;;;;3.20;1.70;;;;;;;;;;5108706;28;20036;-80
2022/08/06 14:55:32;;;;;;;3.30;2.00;;;;;;;;;;5106914;28;20072;-79
2022/08/06 14:57:58;;;;;;;4.72;2.00;;;;;;;;;;5106798;28;20011;-78
2022/08/06 15:00:23;;;;;;;4.13;1.60;;;;;;;;;;5109108;28;20015;-79
2022/08/06 15:02:51;;;;;;;4.35;1.50;;;;;;;;;;5111846;28;20101;-77
2022/08/06 15:05:16;;;;;;;2.70;1.50;;;;;;;;;;5111541;28;20028;-77
2022/08/06 15:07:42;;;;;;;2.53;1.40;;;;;;;;;;5111773;28;20080;-79
2022/08/06 15:10:09;;;;;;;3.10;1.50;;;;;;;;;;5116457;28;20044;-76